Station Historical Data
Daily Summary for January 3, 2018 Units:  English    Metric   Both
« Previous Day
Next Day »
Daily Weekly Monthly Yearly Custom
  High: Low: Average:
Temperature: 22.6 °F 7.5 °F 15.9 °F
Dew Point: 15.7 °F 0.1 °F 6.8 °F
Humidity: 84% 50% 68%
Wind Speed: 15.0mph 1.0mph 7.1mph
Wind Gust: 23.0mph - -
Wind- - SSW
Pressure: 30.23 in 30.00 in -
Precipitation: 0.00 in    
Historical Graphs
 
 
Tabular Data for January 3, 2018
Time Temperature Dew Point Pressure Wind Wind Speed Wind Gust Humidity Rainfall Rate (Hourly)
00:09 12.0 °F 6.7 °F 30.22 in South 9.0 mph 15.0 mph 79% 0.00 in
00:14 11.9 °F 6.6 °F 30.22 in SW 10.0 mph 18.0 mph 79% 0.00 in
00:19 11.9 °F 6.4 °F 30.22 in SSW 9.0 mph 22.0 mph 78% 0.00 in
00:24 11.8 °F 6.3 °F 30.22 in SW 10.0 mph 20.0 mph 78% 0.00 in
00:29 11.8 °F 6.5 °F 30.22 in SSW 9.0 mph 17.0 mph 79% 0.00 in
00:39 11.7 °F 6.2 °F 30.22 in SSW 13.0 mph 18.0 mph 78% 0.00 in
00:44 11.7 °F 6.2 °F 30.22 in SSW 7.0 mph 18.0 mph 78% 0.00 in
00:54 11.5 °F 6.0 °F 30.22 in SW 10.0 mph 21.0 mph 78% 0.00 in
00:59 11.5 °F 6.2 °F 30.21 in SW 10.0 mph 21.0 mph 79% 0.00 in
01:04 11.5 °F 6.2 °F 30.21 in SSW 9.0 mph 20.0 mph 79% 0.00 in
01:09 11.5 °F 6.0 °F 30.21 in SSW 9.0 mph 18.0 mph 78% 0.00 in
01:14 11.5 °F 6.0 °F 30.21 in SSW 8.0 mph 17.0 mph 78% 0.00 in
01:20 11.4 °F 5.9 °F 30.21 in SSW 8.0 mph 21.0 mph 78% 0.00 in
01:29 11.3 °F 5.8 °F 30.21 in SSW 9.0 mph 18.0 mph 78% 0.00 in
01:34 11.3 °F 5.8 °F 30.22 in SSW 10.0 mph 17.0 mph 78% 0.00 in
01:39 11.2 °F 5.7 °F 30.22 in SSW 9.0 mph 19.0 mph 78% 0.00 in
01:44 11.1 °F 5.6 °F 30.22 in WSW 10.0 mph 16.0 mph 78% 0.00 in
01:49 11.0 °F 5.5 °F 30.22 in SW 9.0 mph 17.0 mph 78% 0.00 in
01:59 10.9 °F 5.4 °F 30.22 in SSW 6.0 mph 16.0 mph 78% 0.00 in
02:04 10.9 °F 5.4 °F 30.22 in SSW 8.0 mph 22.0 mph 78% 0.00 in
02:09 10.9 °F 5.1 °F 30.22 in SSW 8.0 mph 22.0 mph 77% 0.00 in
02:14 10.8 °F 5.0 °F 30.22 in SSW 8.0 mph 21.0 mph 77% 0.00 in
02:19 10.8 °F 5.0 °F 30.22 in SSW 8.0 mph 19.0 mph 77% 0.00 in
02:24 10.7 °F 4.9 °F 30.23 in SSW 8.0 mph 19.0 mph 77% 0.00 in
02:29 10.7 °F 4.9 °F 30.23 in SSW 7.0 mph 15.0 mph 77% 0.00 in
02:34 10.7 °F 4.9 °F 30.23 in SSW 7.0 mph 15.0 mph 77% 0.00 in
02:44 10.6 °F 4.8 °F 30.22 in South 5.0 mph 17.0 mph 77% 0.00 in
02:49 10.5 °F 4.7 °F 30.22 in SW 5.0 mph 13.0 mph 77% 0.00 in
02:59 10.5 °F 4.4 °F 30.22 in SSW 5.0 mph 15.0 mph 76% 0.00 in
03:04 10.4 °F 4.3 °F 30.22 in South 7.0 mph 18.0 mph 76% 0.00 in
03:09 10.3 °F 4.2 °F 30.22 in SSW 9.0 mph 18.0 mph 76% 0.00 in
03:14 10.2 °F 3.8 °F 30.22 in SSW 9.0 mph 23.0 mph 75% 0.00 in
03:19 10.1 °F 4.0 °F 30.22 in SSW 8.0 mph 23.0 mph 76% 0.00 in
03:24 10.1 °F 4.0 °F 30.22 in SSW 7.0 mph 14.0 mph 76% 0.00 in
03:34 9.9 °F 3.6 °F 30.22 in SSW 8.0 mph 17.0 mph 75% 0.00 in
03:44 9.9 °F 3.6 °F 30.22 in South 6.0 mph 18.0 mph 75% 0.00 in
03:49 9.8 °F 3.5 °F 30.21 in South 5.0 mph 16.0 mph 75% 0.00 in
03:54 9.8 °F 3.5 °F 30.21 in SW 5.0 mph 17.0 mph 75% 0.00 in
03:59 9.8 °F 3.5 °F 30.21 in SW 7.0 mph 15.0 mph 75% 0.00 in
04:04 9.7 °F 3.4 °F 30.20 in SW 8.0 mph 19.0 mph 75% 0.00 in
04:09 9.6 °F 3.3 °F 30.20 in SSW 9.0 mph 17.0 mph 75% 0.00 in
04:14 9.6 °F 3.3 °F 30.20 in SW 8.0 mph 18.0 mph 75% 0.00 in
04:19 9.6 °F 3.0 °F 30.20 in SSW 9.0 mph 18.0 mph 74% 0.00 in
04:24 9.5 °F 2.9 °F 30.20 in SSW 8.0 mph 17.0 mph 74% 0.00 in
04:29 9.5 °F 2.9 °F 30.20 in SSW 8.0 mph 18.0 mph 74% 0.00 in
04:39 9.3 °F 2.7 °F 30.20 in SSW 8.0 mph 19.0 mph 74% 0.00 in
04:44 9.2 °F 2.6 °F 30.19 in SW 7.0 mph 16.0 mph 74% 0.00 in
04:49 9.0 °F 2.4 °F 30.19 in SSW 7.0 mph 16.0 mph 74% 0.00 in
04:54 8.9 °F 2.3 °F 30.19 in SSW 7.0 mph 16.0 mph 74% 0.00 in
04:59 8.9 °F 2.0 °F 30.19 in SSW 8.0 mph 18.0 mph 73% 0.00 in
05:04 8.8 °F 2.2 °F 30.19 in WSW 5.0 mph 17.0 mph 74% 0.00 in
05:09 8.8 °F 2.2 °F 30.20 in SSW 7.0 mph 17.0 mph 74% 0.00 in
05:19 8.8 °F 1.9 °F 30.19 in SSW 5.0 mph 15.0 mph 73% 0.00 in
05:29 8.7 °F 1.8 °F 30.19 in SSW 8.0 mph 17.0 mph 73% 0.00 in
05:39 8.6 °F 1.7 °F 30.19 in SSW 8.0 mph 18.0 mph 73% 0.00 in
05:44 8.5 °F 1.6 °F 30.19 in SSW 8.0 mph 18.0 mph 73% 0.00 in
05:49 8.4 °F 1.5 °F 30.19 in SSW 8.0 mph 18.0 mph 73% 0.00 in
05:54 8.3 °F 1.4 °F 30.19 in SSW 8.0 mph 18.0 mph 73% 0.00 in
06:09 8.1 °F 0.9 °F 30.19 in SSW 7.0 mph 12.0 mph 72% 0.00 in
06:19 7.9 °F 0.7 °F 30.19 in South 5.0 mph 10.0 mph 72% 0.00 in
06:24 7.8 °F 0.6 °F 30.19 in South 4.0 mph 12.0 mph 72% 0.00 in
06:29 7.7 °F 0.5 °F 30.19 in South 5.0 mph 11.0 mph 72% 0.00 in
06:34 7.7 °F 0.5 °F 30.19 in SSW 6.0 mph 12.0 mph 72% 0.00 in
06:39 7.7 °F 0.5 °F 30.19 in South 6.0 mph 16.0 mph 72% 0.00 in
06:44 7.6 °F 0.2 °F 30.19 in South 7.0 mph 16.0 mph 71% 0.00 in
06:49 7.6 °F 0.2 °F 30.19 in SSW 8.0 mph 16.0 mph 71% 0.00 in
06:59 7.6 °F 0.5 °F 30.19 in SSW 6.0 mph 12.0 mph 72% 0.00 in
07:04 7.6 °F 0.5 °F 30.19 in SSW 6.0 mph 13.0 mph 72% 0.00 in
07:09 7.6 °F 0.5 °F 30.19 in SSW 6.0 mph 13.0 mph 72% 0.00 in
07:19 7.6 °F 0.2 °F 30.19 in South 4.0 mph 13.0 mph 71% 0.00 in
07:24 7.6 °F 0.2 °F 30.19 in SSW 4.0 mph 13.0 mph 71% 0.00 in
07:34 7.5 °F 0.1 °F 30.19 in SW 7.0 mph 10.0 mph 71% 0.00 in
07:44 7.5 °F 0.1 °F 30.19 in South 6.0 mph 12.0 mph 71% 0.00 in
07:49 7.5 °F 0.4 °F 30.19 in South 7.0 mph 15.0 mph 72% 0.00 in
07:54 7.5 °F 0.1 °F 30.19 in South 7.0 mph 15.0 mph 71% 0.00 in
07:59 7.6 °F 0.5 °F 30.19 in South 7.0 mph 17.0 mph 72% 0.00 in
08:09 7.6 °F 0.5 °F 30.18 in SSE 10.0 mph 13.0 mph 72% 0.00 in
08:14 7.6 °F 0.5 °F 30.18 in South 11.0 mph 16.0 mph 72% 0.00 in
08:19 7.9 °F 0.7 °F 30.18 in SSW 6.0 mph 13.0 mph 72% 0.00 in
08:24 8.1 °F 0.9 °F 30.18 in SSW 7.0 mph 18.0 mph 72% 0.00 in
08:29 8.3 °F 1.1 °F 30.18 in South 4.0 mph 17.0 mph 72% 0.00 in
08:34 8.5 °F 1.3 °F 30.18 in South 9.0 mph 15.0 mph 72% 0.00 in
08:39 8.7 °F 1.5 °F 30.18 in SSW 5.0 mph 15.0 mph 72% 0.00 in
08:44 8.9 °F 1.7 °F 30.18 in SSE 14.0 mph 18.0 mph 72% 0.00 in
08:54 9.5 °F 2.3 °F 30.18 in South 7.0 mph 16.0 mph 72% 0.00 in
09:04 10.5 °F 3.3 °F 30.18 in SSW 7.0 mph 14.0 mph 72% 0.00 in
09:09 11.3 °F 4.0 °F 30.17 in SSW 7.0 mph 14.0 mph 72% 0.00 in
09:14 11.4 °F 3.8 °F 30.17 in SSW 7.0 mph 17.0 mph 71% 0.00 in
09:19 11.6 °F 4.0 °F 30.17 in SSW 4.0 mph 12.0 mph 71% 0.00 in
09:24 11.7 °F 4.1 °F 30.17 in SW 8.0 mph 17.0 mph 71% 0.00 in
09:29 12.0 °F 4.4 °F 30.17 in SSW 7.0 mph 17.0 mph 71% 0.00 in
09:34 12.2 °F 4.3 °F 30.17 in SSW 7.0 mph 13.0 mph 70% 0.00 in
09:44 12.5 °F 4.3 °F 30.17 in SW 7.0 mph 14.0 mph 69% 0.00 in
09:49 12.6 °F 4.3 °F 30.17 in SW 5.0 mph 13.0 mph 69% 0.00 in
09:54 12.6 °F 4.0 °F 30.17 in South 11.0 mph 18.0 mph 68% 0.00 in
09:59 12.6 °F 3.7 °F 30.17 in SSW 3.0 mph 13.0 mph 67% 0.00 in
10:04 13.0 °F 4.1 °F 30.17 in SSW 7.0 mph 17.0 mph 67% 0.00 in
10:14 13.1 °F 3.5 °F 30.16 in SSW 7.0 mph 16.0 mph 65% 0.00 in
10:19 13.3 °F 3.7 °F 30.16 in SW 5.0 mph 17.0 mph 65% 0.00 in
10:24 13.5 °F 3.9 °F 30.16 in SSW 5.0 mph 14.0 mph 65% 0.00 in
10:29 13.9 °F 4.0 °F 30.15 in SSW 8.0 mph 16.0 mph 64% 0.00 in
10:34 13.9 °F 3.3 °F 30.15 in SSW 5.0 mph 16.0 mph 62% 0.00 in
10:39 13.9 °F 3.3 °F 30.15 in SSW 8.0 mph 16.0 mph 62% 0.00 in
10:44 14.1 °F 3.1 °F 30.15 in SSW 7.0 mph 14.0 mph 61% 0.00 in
10:54 14.8 °F 3.4 °F 30.15 in SSW 4.0 mph 14.0 mph 60% 0.00 in
11:04 14.7 °F 2.6 °F 30.14 in SW 11.0 mph 16.0 mph 58% 0.00 in
11:14 15.3 °F 2.8 °F 30.13 in SSW 8.0 mph 16.0 mph 57% 0.00 in
11:19 15.5 °F 3.0 °F 30.13 in SSW 8.0 mph 16.0 mph 57% 0.00 in
11:24 16.2 °F 3.6 °F 30.13 in SSW 8.0 mph 17.0 mph 57% 0.00 in
11:29 16.4 °F 3.4 °F 30.12 in SW 11.0 mph 14.0 mph 56% 0.00 in
11:34 16.8 °F 3.8 °F 30.12 in SSW 7.0 mph 15.0 mph 56% 0.00 in
11:39 17.1 °F 3.7 °F 30.11 in South 5.0 mph 13.0 mph 55% 0.00 in
11:44 17.2 °F 3.8 °F 30.11 in SSW 7.0 mph 14.0 mph 55% 0.00 in
11:54 17.3 °F 3.5 °F 30.11 in South 11.0 mph 16.0 mph 54% 0.00 in
11:59 17.6 °F 3.8 °F 30.10 in SSW 10.0 mph 18.0 mph 54% 0.00 in
12:04 17.7 °F 3.4 °F 30.10 in SSW 8.0 mph 18.0 mph 53% 0.00 in
12:09 18.6 °F 4.7 °F 30.10 in SSW 4.0 mph 16.0 mph 54% 0.00 in
12:19 19.3 °F 4.9 °F 30.09 in SSW 8.0 mph 20.0 mph 53% 0.00 in
12:24 19.5 °F 4.7 °F 30.08 in SSW 8.0 mph 19.0 mph 52% 0.00 in
12:44 19.5 °F 5.1 °F 30.07 in SSW 6.0 mph 13.0 mph 53% 0.00 in
12:49 19.1 °F 4.3 °F 30.07 in South 6.0 mph 13.0 mph 52% 0.00 in
12:59 20.1 °F 4.4 °F 30.07 in SSW 7.0 mph 14.0 mph 50% 0.00 in
13:09 19.9 °F 4.7 °F 30.06 in SW 3.0 mph 13.0 mph 51% 0.00 in
13:14 20.1 °F 5.7 °F 30.05 in SSE 5.0 mph 9.0 mph 53% 0.00 in
13:15 20.1 °F 5.7 °F 30.05 in SSW 6.0 mph 13.0 mph 53% 0.00 in
13:29 20.4 °F 5.5 °F 30.06 in SSW 5.0 mph 12.0 mph 52% 0.00 in
13:34 20.1 °F 4.8 °F 30.05 in SSW 6.0 mph 14.0 mph 51% 0.00 in
13:39 20.2 °F 5.4 °F 30.05 in SSW 7.0 mph 14.0 mph 52% 0.00 in
13:44 20.2 °F 4.9 °F 30.05 in South 3.0 mph 11.0 mph 51% 0.00 in
13:54 20.4 °F 5.1 °F 30.04 in SW 9.0 mph 14.0 mph 51% 0.00 in
13:59 20.4 °F 5.1 °F 30.04 in SSW 7.0 mph 10.0 mph 51% 0.00 in
14:04 20.6 °F 5.3 °F 30.04 in SSW 6.0 mph 11.0 mph 51% 0.00 in
14:09 20.6 °F 5.3 °F 30.04 in SSW 6.0 mph 11.0 mph 51% 0.00 in
14:14 20.9 °F 5.6 °F 30.03 in SSW 6.0 mph 11.0 mph 51% 0.00 in
14:19 21.1 °F 6.2 °F 30.03 in SSW 5.0 mph 11.0 mph 52% 0.00 in
14:24 21.2 °F 5.9 °F 30.03 in South 2.0 mph 11.0 mph 51% 0.00 in
14:29 21.4 °F 6.0 °F 30.03 in SSW 5.0 mph 11.0 mph 51% 0.00 in
14:34 21.5 °F 6.6 °F 30.03 in SSW 7.0 mph 10.0 mph 52% 0.00 in
14:39 21.8 °F 6.4 °F 30.02 in SSW 6.0 mph 16.0 mph 51% 0.00 in
14:49 22.0 °F 6.6 °F 30.03 in West 9.0 mph 16.0 mph 51% 0.00 in
14:54 21.9 °F 6.1 °F 30.02 in SW 9.0 mph 19.0 mph 50% 0.00 in
14:59 21.9 °F 6.9 °F 30.02 in SW 15.0 mph 17.0 mph 52% 0.00 in
15:04 21.9 °F 6.9 °F 30.02 in WSW 8.0 mph 17.0 mph 52% 0.00 in
15:09 21.9 °F 6.9 °F 30.02 in WSW 10.0 mph 17.0 mph 52% 0.00 in
15:15 21.9 °F 7.4 °F 30.02 in WSW 5.0 mph 14.0 mph 53% 0.00 in
15:29 21.7 °F 7.6 °F 30.01 in SW 7.0 mph 13.0 mph 54% 0.00 in
15:39 21.7 °F 8.0 °F 30.01 in WSW 12.0 mph 15.0 mph 55% 0.00 in
15:44 21.8 °F 8.1 °F 30.02 in SW 5.0 mph 18.0 mph 55% 0.00 in
15:49 21.8 °F 7.7 °F 30.02 in WSW 9.0 mph 18.0 mph 54% 0.00 in
15:54 21.8 °F 7.7 °F 30.02 in WSW 9.0 mph 18.0 mph 54% 0.00 in
15:59 21.7 °F 8.0 °F 30.01 in SW 9.0 mph 15.0 mph 55% 0.00 in
16:09 21.6 °F 8.3 °F 30.01 in SSW 7.0 mph 16.0 mph 56% 0.00 in
16:14 21.6 °F 8.3 °F 30.01 in SSW 9.0 mph 20.0 mph 56% 0.00 in
16:19 21.6 °F 8.3 °F 30.01 in SW 8.0 mph 15.0 mph 56% 0.00 in
16:24 21.5 °F 8.2 °F 30.01 in SW 8.0 mph 15.0 mph 56% 0.00 in
16:29 21.5 °F 8.6 °F 30.01 in South 10.0 mph 16.0 mph 57% 0.00 in
16:34 21.5 °F 9.0 °F 30.02 in SW 8.0 mph 16.0 mph 58% 0.00 in
16:39 21.5 °F 9.0 °F 30.02 in SW 12.0 mph 17.0 mph 58% 0.00 in
16:59 21.3 °F 9.9 °F 30.02 in SW 5.0 mph 13.0 mph 61% 0.00 in
17:04 21.2 °F 9.8 °F 30.02 in SW 5.0 mph 17.0 mph 61% 0.00 in
17:14 21.3 °F 9.9 °F 30.02 in SW 8.0 mph 15.0 mph 61% 0.00 in
17:19 21.3 °F 10.3 °F 30.02 in SSW 7.0 mph 17.0 mph 62% 0.00 in
17:24 21.3 °F 10.3 °F 30.02 in South 8.0 mph 14.0 mph 62% 0.00 in
17:29 21.4 °F 10.4 °F 30.03 in SSW 6.0 mph 12.0 mph 62% 0.00 in
17:34 21.5 °F 10.5 °F 30.03 in SW 7.0 mph 17.0 mph 62% 0.00 in
17:39 21.7 °F 10.7 °F 30.03 in SW 7.0 mph 17.0 mph 62% 0.00 in
17:44 21.8 °F 10.4 °F 30.03 in SW 7.0 mph 16.0 mph 61% 0.00 in
17:54 22.0 °F 10.2 °F 30.03 in SSW 6.0 mph 14.0 mph 60% 0.00 in
17:59 22.0 °F 9.8 °F 30.04 in SSW 6.0 mph 13.0 mph 59% 0.00 in
18:04 22.0 °F 9.8 °F 30.04 in South 7.0 mph 14.0 mph 59% 0.00 in
18:09 22.0 °F 9.5 °F 30.04 in SSW 7.0 mph 14.0 mph 58% 0.00 in
18:14 22.1 °F 9.9 °F 30.04 in SW 11.0 mph 16.0 mph 59% 0.00 in
18:19 22.2 °F 10.4 °F 30.04 in WSW 2.0 mph 13.0 mph 60% 0.00 in
18:24 22.2 °F 10.4 °F 30.04 in SW 4.0 mph 10.0 mph 60% 0.00 in
18:29 22.4 °F 11.0 °F 30.04 in SW 4.0 mph 11.0 mph 61% 0.00 in
18:34 22.5 °F 11.1 °F 30.04 in SW 5.0 mph 14.0 mph 61% 0.00 in
18:39 22.5 °F 10.7 °F 30.04 in SW 10.0 mph 20.0 mph 60% 0.00 in
18:44 22.6 °F 10.4 °F 30.04 in SW 9.0 mph 22.0 mph 59% 0.00 in
19:04 22.5 °F 10.7 °F 30.04 in SW 10.0 mph 21.0 mph 60% 0.00 in
19:09 22.4 °F 10.6 °F 30.04 in WSW 9.0 mph 21.0 mph 60% 0.00 in
19:14 22.3 °F 10.5 °F 30.03 in West 7.0 mph 11.0 mph 60% 0.00 in
19:24 22.3 °F 10.9 °F 30.03 in WSW 10.0 mph 17.0 mph 61% 0.00 in
19:29 22.3 °F 10.5 °F 30.03 in WSW 5.0 mph 13.0 mph 60% 0.00 in
19:44 22.4 °F 10.6 °F 30.03 in SW 8.0 mph 22.0 mph 60% 0.00 in
19:49 22.4 °F 10.6 °F 30.03 in SW 9.0 mph 22.0 mph 60% 0.00 in
19:54 22.3 °F 10.9 °F 30.03 in SW 7.0 mph 19.0 mph 61% 0.00 in
19:59 22.2 °F 10.8 °F 30.03 in SW 7.0 mph 17.0 mph 61% 0.00 in
20:04 22.2 °F 10.8 °F 30.02 in SW 9.0 mph 17.0 mph 61% 0.00 in
20:14 22.2 °F 11.1 °F 30.02 in West 9.0 mph 16.0 mph 62% 0.00 in
20:19 22.1 °F 11.4 °F 30.02 in WSW 7.0 mph 16.0 mph 63% 0.00 in
20:24 22.0 °F 11.3 °F 30.02 in WSW 8.0 mph 13.0 mph 63% 0.00 in
20:29 22.0 °F 11.7 °F 30.01 in WSW 10.0 mph 19.0 mph 64% 0.00 in
20:34 22.0 °F 11.7 °F 30.01 in WSW 10.0 mph 16.0 mph 64% 0.00 in
20:39 21.9 °F 11.9 °F 30.01 in WSW 10.0 mph 16.0 mph 65% 0.00 in
20:44 21.8 °F 12.2 °F 30.01 in SW 7.0 mph 17.0 mph 66% 0.00 in
20:49 21.7 °F 12.4 °F 30.01 in SW 8.0 mph 17.0 mph 67% 0.00 in
20:54 21.6 °F 12.7 °F 30.01 in WSW 6.0 mph 19.0 mph 68% 0.00 in
20:59 21.5 °F 12.9 °F 30.01 in WNW 7.0 mph 14.0 mph 69% 0.00 in
21:04 21.6 °F 13.3 °F 30.01 in SW 8.0 mph 16.0 mph 70% 0.00 in
21:14 21.4 °F 13.8 °F 30.01 in SW 8.0 mph 18.0 mph 72% 0.00 in
21:19 21.3 °F 14.0 °F 30.01 in WSW 8.0 mph 18.0 mph 73% 0.00 in
21:24 21.2 °F 14.5 °F 30.02 in SW 8.0 mph 18.0 mph 75% 0.00 in
21:29 21.1 °F 14.7 °F 30.01 in WSW 11.0 mph 15.0 mph 76% 0.00 in
21:34 21.1 °F 15.0 °F 30.01 in WSW 6.0 mph 12.0 mph 77% 0.00 in
21:39 21.0 °F 15.2 °F 30.01 in SW 5.0 mph 12.0 mph 78% 0.00 in
21:44 20.9 °F 15.4 °F 30.01 in SW 6.0 mph 12.0 mph 79% 0.00 in
21:49 20.9 °F 15.7 °F 30.01 in South 1.0 mph 11.0 mph 80% 0.00 in
21:54 20.8 °F 15.6 °F 30.01 in SW 7.0 mph 11.0 mph 80% 0.00 in
22:04 20.6 °F 15.7 °F 30.01 in SSW 8.0 mph 10.0 mph 81% 0.00 in
22:14 20.5 °F 15.6 °F 30.01 in SSW 5.0 mph 10.0 mph 81% 0.00 in
22:19 20.4 °F 15.5 °F 30.00 in SSW 6.0 mph 10.0 mph 81% 0.00 in
22:24 20.3 °F 15.4 °F 30.00 in SSW 6.0 mph 11.0 mph 81% 0.00 in
22:29 20.2 °F 15.3 °F 30.00 in SSW 5.0 mph 13.0 mph 81% 0.00 in
22:34 20.1 °F 15.2 °F 30.00 in SSW 5.0 mph 13.0 mph 81% 0.00 in
22:39 19.9 °F 15.0 °F 30.00 in SSW 8.0 mph 14.0 mph 81% 0.00 in
22:44 19.9 °F 15.0 °F 30.00 in SSW 6.0 mph 14.0 mph 81% 0.00 in
22:49 19.8 °F 14.9 °F 30.00 in South 4.0 mph 8.0 mph 81% 0.00 in
22:54 19.7 °F 14.5 °F 30.00 in SW 6.0 mph 13.0 mph 80% 0.00 in
22:55 19.7 °F 14.5 °F 30.00 in South 5.0 mph 13.0 mph 80% 0.00 in
23:04 19.7 °F 14.5 °F 30.01 in SSW 6.0 mph 12.0 mph 80% 0.00 in
23:14 19.6 °F 14.4 °F 30.01 in WSW 4.0 mph 9.0 mph 80% 0.00 in
23:19 19.6 °F 14.4 °F 30.01 in WSW 4.0 mph 9.0 mph 80% 0.00 in
23:24 19.5 °F 14.6 °F 30.01 in WSW 4.0 mph 7.0 mph 81% 0.00 in
23:29 19.4 °F 14.8 °F 30.01 in WSW 3.0 mph 7.0 mph 82% 0.00 in
23:34 19.5 °F 14.9 °F 30.01 in WSW 2.0 mph 8.0 mph 82% 0.00 in
23:39 19.3 °F 15.0 °F 30.01 in WSW 3.0 mph 8.0 mph 83% 0.00 in
23:44 19.1 °F 14.8 °F 30.01 in WSW 4.0 mph 4.0 mph 83% 0.00 in
23:49 19.0 °F 14.7 °F 30.01 in WSW 2.0 mph 4.0 mph 83% 0.00 in
23:54 18.9 °F 14.6 °F 30.01 in WSW 2.0 mph 6.0 mph 83% 0.00 in
23:59 18.9 °F 14.9 °F 30.01 in West 3.0 mph 6.0 mph 84% 0.00 in
Buffalo, New York, USA
Compliments of Weather Underground - 2 mb